sensor_id;sensor_type;location;lat;lon;timestamp;P1;durP1;ratioP1;P2;durP2;ratioP2
36211;SDS011;22247;48.586;13.492;2022-12-07T00:01:39;5.55;;;3.10;;
36211;SDS011;22247;48.586;13.492;2022-12-07T00:04:06;5.15;;;3.53;;
36211;SDS011;22247;48.586;13.492;2022-12-07T00:06:39;5.70;;;2.85;;
36211;SDS011;22247;48.586;13.492;2022-12-07T00:09:11;6.38;;;3.50;;
36211;SDS011;22247;48.586;13.492;2022-12-07T00:11:39;4.95;;;3.80;;
36211;SDS011;22247;48.586;13.492;2022-12-07T00:14:06;6.53;;;2.78;;
36211;SDS011;22247;48.586;13.492;2022-12-07T00:16:37;6.32;;;3.35;;
36211;SDS011;22247;48.586;13.492;2022-12-07T00:19:04;4.82;;;3.15;;
36211;SDS011;22247;48.586;13.492;2022-12-07T00:21:31;6.10;;;3.72;;
36211;SDS011;22247;48.586;13.492;2022-12-07T00:24:01;6.55;;;3.92;;
36211;SDS011;22247;48.586;13.492;2022-12-07T00:26:28;5.30;;;3.08;;
36211;SDS011;22247;48.586;13.492;2022-12-07T00:29:03;5.60;;;3.28;;
36211;SDS011;22247;48.586;13.492;2022-12-07T00:31:31;5.82;;;3.35;;
36211;SDS011;22247;48.586;13.492;2022-12-07T00:34:00;5.03;;;3.00;;
36211;SDS011;22247;48.586;13.492;2022-12-07T00:36:25;4.38;;;2.90;;
36211;SDS011;22247;48.586;13.492;2022-12-07T00:38:54;6.65;;;3.40;;
36211;SDS011;22247;48.586;13.492;2022-12-07T00:41:22;4.97;;;3.03;;
36211;SDS011;22247;48.586;13.492;2022-12-07T00:43:51;5.97;;;3.63;;
36211;SDS011;22247;48.586;13.492;2022-12-07T00:46:18;8.90;;;3.55;;
36211;SDS011;22247;48.586;13.492;2022-12-07T00:48:45;9.25;;;3.38;;
36211;SDS011;22247;48.586;13.492;2022-12-07T00:51:15;7.10;;;3.90;;
36211;SDS011;22247;48.586;13.492;2022-12-07T00:53:42;4.90;;;2.95;;
36211;SDS011;22247;48.586;13.492;2022-12-07T00:56:17;6.93;;;3.67;;
36211;SDS011;22247;48.586;13.492;2022-12-07T00:59:05;6.72;;;3.63;;
36211;SDS011;22247;48.586;13.492;2022-12-07T01:01:32;7.63;;;3.55;;
36211;SDS011;22247;48.586;13.492;2022-12-07T01:04:01;6.40;;;3.83;;
36211;SDS011;22247;48.586;13.492;2022-12-07T01:06:30;5.47;;;3.58;;
36211;SDS011;22247;48.586;13.492;2022-12-07T01:08:56;6.45;;;3.70;;
36211;SDS011;22247;48.586;13.492;2022-12-07T01:11:23;6.72;;;3.78;;
36211;SDS011;22247;48.586;13.492;2022-12-07T01:13:54;6.03;;;3.78;;
36211;SDS011;22247;48.586;13.492;2022-12-07T01:16:27;6.47;;;3.95;;
36211;SDS011;22247;48.586;13.492;2022-12-07T01:18:57;6.25;;;3.83;;
36211;SDS011;22247;48.586;13.492;2022-12-07T01:21:24;6.43;;;3.63;;
36211;SDS011;22247;48.586;13.492;2022-12-07T01:23:59;5.90;;;3.50;;
36211;SDS011;22247;48.586;13.492;2022-12-07T01:26:28;7.68;;;3.88;;
36211;SDS011;22247;48.586;13.492;2022-12-07T01:28:54;4.95;;;3.58;;
36211;SDS011;22247;48.586;13.492;2022-12-07T01:31:21;5.32;;;3.17;;
36211;SDS011;22247;48.586;13.492;2022-12-07T01:33:53;6.65;;;3.42;;
36211;SDS011;22247;48.586;13.492;2022-12-07T01:36:26;5.68;;;3.25;;
36211;SDS011;22247;48.586;13.492;2022-12-07T01:39:01;5.20;;;3.17;;
36211;SDS011;22247;48.586;13.492;2022-12-07T01:41:29;4.63;;;2.78;;
36211;SDS011;22247;48.586;13.492;2022-12-07T01:46:44;6.88;;;2.85;;
36211;SDS011;22247;48.586;13.492;2022-12-07T01:52:23;4.85;;;2.83;;
36211;SDS011;22247;48.586;13.492;2022-12-07T01:54:52;5.45;;;2.38;;
36211;SDS011;22247;48.586;13.492;2022-12-07T01:57:24;4.60;;;3.20;;
36211;SDS011;22247;48.586;13.492;2022-12-07T01:59:51;4.68;;;2.70;;
36211;SDS011;22247;48.586;13.492;2022-12-07T02:02:19;4.53;;;2.78;;
36211;SDS011;22247;48.586;13.492;2022-12-07T02:04:59;5.88;;;3.55;;
36211;SDS011;22247;48.586;13.492;2022-12-07T02:07:28;3.30;;;2.17;;
36211;SDS011;22247;48.586;13.492;2022-12-07T02:09:55;6.43;;;2.90;;
36211;SDS011;22247;48.586;13.492;2022-12-07T02:12:21;4.43;;;2.70;;
36211;SDS011;22247;48.586;13.492;2022-12-07T02:14:51;4.03;;;2.15;;
36211;SDS011;22247;48.586;13.492;2022-12-07T02:17:21;5.40;;;2.75;;
36211;SDS011;22247;48.586;13.492;2022-12-07T02:20:03;4.82;;;2.92;;
36211;SDS011;22247;48.586;13.492;2022-12-07T02:31:18;6.53;;;2.80;;
36211;SDS011;22247;48.586;13.492;2022-12-07T02:33:57;8.10;;;2.88;;
36211;SDS011;22247;48.586;13.492;2022-12-07T02:36:49;4.80;;;2.85;;
36211;SDS011;22247;48.586;13.492;2022-12-07T02:39:24;4.55;;;2.97;;
36211;SDS011;22247;48.586;13.492;2022-12-07T02:42:07;6.30;;;2.78;;
36211;SDS011;22247;48.586;13.492;2022-12-07T02:44:41;3.83;;;2.22;;
36211;SDS011;22247;48.586;13.492;2022-12-07T02:47:09;4.53;;;2.72;;
36211;SDS011;22247;48.586;13.492;2022-12-07T02:49:44;6.50;;;3.15;;
36211;SDS011;22247;48.586;13.492;2022-12-07T02:52:12;5.63;;;3.08;;
36211;SDS011;22247;48.586;13.492;2022-12-07T02:54:38;4.70;;;2.95;;
36211;SDS011;22247;48.586;13.492;2022-12-07T02:57:08;5.07;;;2.80;;
36211;SDS011;22247;48.586;13.492;2022-12-07T03:17:59;6.80;;;3.17;;
36211;SDS011;22247;48.586;13.492;2022-12-07T03:20:29;5.10;;;3.17;;
36211;SDS011;22247;48.586;13.492;2022-12-07T03:22:57;6.88;;;3.88;;
36211;SDS011;22247;48.586;13.492;2022-12-07T03:25:24;6.00;;;3.50;;
36211;SDS011;22247;48.586;13.492;2022-12-07T03:28:01;5.03;;;2.78;;
36211;SDS011;22247;48.586;13.492;2022-12-07T03:30:52;7.38;;;3.55;;
36211;SDS011;22247;48.586;13.492;2022-12-07T03:33:24;4.97;;;3.67;;
36211;SDS011;22247;48.586;13.492;2022-12-07T03:38:42;5.72;;;3.17;;
36211;SDS011;22247;48.586;13.492;2022-12-07T03:41:21;7.22;;;3.42;;
36211;SDS011;22247;48.586;13.492;2022-12-07T03:43:49;7.15;;;3.75;;
36211;SDS011;22247;48.586;13.492;2022-12-07T03:48:44;4.68;;;3.40;;
36211;SDS011;22247;48.586;13.492;2022-12-07T03:51:33;6.90;;;2.67;;
36211;SDS011;22247;48.586;13.492;2022-12-07T03:54:15;7.18;;;3.65;;
36211;SDS011;22247;48.586;13.492;2022-12-07T03:56:46;5.03;;;3.05;;
36211;SDS011;22247;48.586;13.492;2022-12-07T03:59:14;8.07;;;3.30;;
36211;SDS011;22247;48.586;13.492;2022-12-07T04:01:51;4.97;;;2.95;;
36211;SDS011;22247;48.586;13.492;2022-12-07T04:04:19;4.20;;;2.72;;
36211;SDS011;22247;48.586;13.492;2022-12-07T04:06:47;4.95;;;3.17;;
36211;SDS011;22247;48.586;13.492;2022-12-07T04:09:13;4.18;;;2.97;;
36211;SDS011;22247;48.586;13.492;2022-12-07T04:11:42;4.65;;;3.17;;
36211;SDS011;22247;48.586;13.492;2022-12-07T04:14:09;5.00;;;3.58;;
36211;SDS011;22247;48.586;13.492;2022-12-07T04:19:15;6.10;;;3.38;;
36211;SDS011;22247;48.586;13.492;2022-12-07T04:21:45;5.90;;;3.35;;
36211;SDS011;22247;48.586;13.492;2022-12-07T04:24:12;4.70;;;3.00;;
36211;SDS011;22247;48.586;13.492;2022-12-07T04:26:45;8.00;;;4.40;;
36211;SDS011;22247;48.586;13.492;2022-12-07T04:29:12;6.13;;;3.22;;
36211;SDS011;22247;48.586;13.492;2022-12-07T04:31:38;8.90;;;3.78;;
36211;SDS011;22247;48.586;13.492;2022-12-07T04:34:05;7.38;;;3.42;;
36211;SDS011;22247;48.586;13.492;2022-12-07T04:36:36;6.22;;;3.25;;
36211;SDS011;22247;48.586;13.492;2022-12-07T04:39:02;6.70;;;3.75;;
36211;SDS011;22247;48.586;13.492;2022-12-07T04:41:31;4.68;;;3.15;;
36211;SDS011;22247;48.586;13.492;2022-12-07T04:43:58;5.43;;;3.75;;
36211;SDS011;22247;48.586;13.492;2022-12-07T04:46:26;5.82;;;3.38;;
36211;SDS011;22247;48.586;13.492;2022-12-07T04:48:55;4.93;;;3.30;;
36211;SDS011;22247;48.586;13.492;2022-12-07T04:51:22;6.47;;;3.67;;
36211;SDS011;22247;48.586;13.492;2022-12-07T04:53:50;4.57;;;3.20;;
36211;SDS011;22247;48.586;13.492;2022-12-07T04:56:18;6.53;;;3.78;;
36211;SDS011;22247;48.586;13.492;2022-12-07T04:58:45;6.63;;;3.38;;
36211;SDS011;22247;48.586;13.492;2022-12-07T05:01:15;5.00;;;3.65;;
36211;SDS011;22247;48.586;13.492;2022-12-07T05:03:41;6.80;;;4.45;;
36211;SDS011;22247;48.586;13.492;2022-12-07T05:06:11;6.65;;;4.25;;
36211;SDS011;22247;48.586;13.492;2022-12-07T05:08:41;5.47;;;3.90;;
36211;SDS011;22247;48.586;13.492;2022-12-07T05:11:08;5.95;;;4.28;;
36211;SDS011;22247;48.586;13.492;2022-12-07T05:13:34;9.30;;;5.00;;
36211;SDS011;22247;48.586;13.492;2022-12-07T05:16:01;8.60;;;4.40;;
36211;SDS011;22247;48.586;13.492;2022-12-07T05:18:27;7.35;;;4.93;;
36211;SDS011;22247;48.586;13.492;2022-12-07T05:20:53;8.60;;;4.70;;
36211;SDS011;22247;48.586;13.492;2022-12-07T05:23:19;5.57;;;3.60;;
36211;SDS011;22247;48.586;13.492;2022-12-07T05:25:45;7.95;;;4.30;;
36211;SDS011;22247;48.586;13.492;2022-12-07T05:28:11;8.13;;;4.57;;
36211;SDS011;22247;48.586;13.492;2022-12-07T05:30:37;8.25;;;4.95;;
36211;SDS011;22247;48.586;13.492;2022-12-07T05:33:02;7.75;;;4.35;;
36211;SDS011;22247;48.586;13.492;2022-12-07T05:35:30;8.30;;;4.78;;
36211;SDS011;22247;48.586;13.492;2022-12-07T05:37:58;6.07;;;4.20;;
36211;SDS011;22247;48.586;13.492;2022-12-07T05:40:23;9.75;;;6.10;;
36211;SDS011;22247;48.586;13.492;2022-12-07T05:42:49;7.63;;;4.93;;
36211;SDS011;22247;48.586;13.492;2022-12-07T05:45:15;8.55;;;5.57;;
36211;SDS011;22247;48.586;13.492;2022-12-07T05:47:41;8.45;;;5.20;;
36211;SDS011;22247;48.586;13.492;2022-12-07T05:50:07;6.20;;;4.40;;
36211;SDS011;22247;48.586;13.492;2022-12-07T05:52:35;7.68;;;4.25;;
36211;SDS011;22247;48.586;13.492;2022-12-07T05:55:00;7.95;;;4.63;;
36211;SDS011;22247;48.586;13.492;2022-12-07T05:57:29;7.10;;;5.28;;
36211;SDS011;22247;48.586;13.492;2022-12-07T05:59:57;7.45;;;4.72;;
36211;SDS011;22247;48.586;13.492;2022-12-07T06:02:27;16.48;;;6.70;;
36211;SDS011;22247;48.586;13.492;2022-12-07T06:04:55;9.25;;;4.72;;
36211;SDS011;22247;48.586;13.492;2022-12-07T06:07:23;11.57;;;4.93;;
36211;SDS011;22247;48.586;13.492;2022-12-07T06:09:49;7.57;;;5.00;;
36211;SDS011;22247;48.586;13.492;2022-12-07T06:12:17;7.03;;;4.35;;
36211;SDS011;22247;48.586;13.492;2022-12-07T06:15:03;7.80;;;5.05;;
36211;SDS011;22247;48.586;13.492;2022-12-07T06:17:31;9.43;;;4.40;;
36211;SDS011;22247;48.586;13.492;2022-12-07T06:19:59;9.05;;;5.18;;
36211;SDS011;22247;48.586;13.492;2022-12-07T06:22:28;11.68;;;5.57;;
36211;SDS011;22247;48.586;13.492;2022-12-07T06:24:56;13.45;;;7.60;;
36211;SDS011;22247;48.586;13.492;2022-12-07T06:27:24;14.10;;;6.43;;
36211;SDS011;22247;48.586;13.492;2022-12-07T06:29:52;10.43;;;6.05;;
36211;SDS011;22247;48.586;13.492;2022-12-07T06:32:17;12.30;;;6.43;;
36211;SDS011;22247;48.586;13.492;2022-12-07T06:34:43;7.38;;;5.07;;
36211;SDS011;22247;48.586;13.492;2022-12-07T06:37:11;10.48;;;6.07;;
36211;SDS011;22247;48.586;13.492;2022-12-07T06:39:37;8.95;;;5.38;;
36211;SDS011;22247;48.586;13.492;2022-12-07T06:42:06;9.40;;;5.20;;
36211;SDS011;22247;48.586;13.492;2022-12-07T06:44:31;9.00;;;5.43;;
36211;SDS011;22247;48.586;13.492;2022-12-07T06:46:57;12.45;;;6.97;;
36211;SDS011;22247;48.586;13.492;2022-12-07T06:49:26;8.27;;;5.45;;
36211;SDS011;22247;48.586;13.492;2022-12-07T06:51:54;9.57;;;6.13;;
36211;SDS011;22247;48.586;13.492;2022-12-07T06:54:22;10.05;;;5.95;;
36211;SDS011;22247;48.586;13.492;2022-12-07T06:56:48;6.75;;;4.78;;
36211;SDS011;22247;48.586;13.492;2022-12-07T06:59:16;8.25;;;5.47;;
36211;SDS011;22247;48.586;13.492;2022-12-07T07:01:41;8.48;;;5.25;;
36211;SDS011;22247;48.586;13.492;2022-12-07T07:04:07;8.07;;;5.13;;
36211;SDS011;22247;48.586;13.492;2022-12-07T07:06:33;8.77;;;5.03;;
36211;SDS011;22247;48.586;13.492;2022-12-07T07:09:02;9.80;;;5.63;;
36211;SDS011;22247;48.586;13.492;2022-12-07T07:11:28;7.75;;;5.45;;
36211;SDS011;22247;48.586;13.492;2022-12-07T07:13:53;9.75;;;5.95;;
36211;SDS011;22247;48.586;13.492;2022-12-07T07:16:21;9.50;;;5.35;;
36211;SDS011;22247;48.586;13.492;2022-12-07T07:18:50;9.10;;;5.90;;
36211;SDS011;22247;48.586;13.492;2022-12-07T07:21:18;9.02;;;5.70;;
36211;SDS011;22247;48.586;13.492;2022-12-07T07:23:43;11.38;;;6.70;;
36211;SDS011;22247;48.586;13.492;2022-12-07T07:26:09;9.88;;;5.65;;
36211;SDS011;22247;48.586;13.492;2022-12-07T07:28:39;10.15;;;6.10;;
36211;SDS011;22247;48.586;13.492;2022-12-07T07:31:04;9.15;;;6.03;;
36211;SDS011;22247;48.586;13.492;2022-12-07T07:33:35;10.40;;;6.32;;
36211;SDS011;22247;48.586;13.492;2022-12-07T07:36:00;10.43;;;6.57;;
36211;SDS011;22247;48.586;13.492;2022-12-07T07:38:26;10.68;;;5.95;;
36211;SDS011;22247;48.586;13.492;2022-12-07T07:40:54;10.13;;;5.72;;
36211;SDS011;22247;48.586;13.492;2022-12-07T07:43:23;11.90;;;7.30;;
36211;SDS011;22247;48.586;13.492;2022-12-07T07:45:53;11.40;;;6.97;;
36211;SDS011;22247;48.586;13.492;2022-12-07T07:48:18;10.95;;;6.97;;
36211;SDS011;22247;48.586;13.492;2022-12-07T07:50:44;12.32;;;6.93;;
36211;SDS011;22247;48.586;13.492;2022-12-07T07:53:10;10.27;;;6.28;;
36211;SDS011;22247;48.586;13.492;2022-12-07T07:55:36;11.82;;;7.38;;
36211;SDS011;22247;48.586;13.492;2022-12-07T07:58:02;11.52;;;6.65;;
36211;SDS011;22247;48.586;13.492;2022-12-07T08:00:28;13.70;;;7.32;;
36211;SDS011;22247;48.586;13.492;2022-12-07T08:02:57;14.13;;;7.88;;
36211;SDS011;22247;48.586;13.492;2022-12-07T08:05:22;17.60;;;9.45;;
36211;SDS011;22247;48.586;13.492;2022-12-07T08:07:48;18.60;;;10.18;;
36211;SDS011;22247;48.586;13.492;2022-12-07T08:10:14;19.50;;;8.23;;
36211;SDS011;22247;48.586;13.492;2022-12-07T08:12:45;9.63;;;6.03;;
36211;SDS011;22247;48.586;13.492;2022-12-07T08:15:30;12.82;;;6.75;;
36211;SDS011;22247;48.586;13.492;2022-12-07T08:17:57;12.88;;;7.57;;
36211;SDS011;22247;48.586;13.492;2022-12-07T08:20:25;12.50;;;7.88;;
36211;SDS011;22247;48.586;13.492;2022-12-07T08:22:51;12.68;;;8.15;;
36211;SDS011;22247;48.586;13.492;2022-12-07T08:25:18;13.25;;;8.43;;
36211;SDS011;22247;48.586;13.492;2022-12-07T08:27:47;12.02;;;7.05;;
36211;SDS011;22247;48.586;13.492;2022-12-07T08:30:13;14.00;;;8.25;;
36211;SDS011;22247;48.586;13.492;2022-12-07T08:32:41;12.82;;;7.18;;
36211;SDS011;22247;48.586;13.492;2022-12-07T08:35:07;12.18;;;7.25;;
36211;SDS011;22247;48.586;13.492;2022-12-07T08:37:33;12.65;;;7.43;;
36211;SDS011;22247;48.586;13.492;2022-12-07T08:39:59;12.63;;;7.40;;
36211;SDS011;22247;48.586;13.492;2022-12-07T08:42:25;11.95;;;6.93;;
36211;SDS011;22247;48.586;13.492;2022-12-07T08:44:55;12.45;;;6.70;;
36211;SDS011;22247;48.586;13.492;2022-12-07T08:47:26;12.93;;;7.03;;
36211;SDS011;22247;48.586;13.492;2022-12-07T08:49:54;10.05;;;6.95;;
36211;SDS011;22247;48.586;13.492;2022-12-07T08:52:28;10.95;;;7.15;;
36211;SDS011;22247;48.586;13.492;2022-12-07T08:54:58;11.05;;;6.00;;
36211;SDS011;22247;48.586;13.492;2022-12-07T08:57:30;10.20;;;5.85;;
36211;SDS011;22247;48.586;13.492;2022-12-07T09:00:01;11.98;;;6.65;;
36211;SDS011;22247;48.586;13.492;2022-12-07T09:02:27;8.98;;;6.35;;
36211;SDS011;22247;48.586;13.492;2022-12-07T09:04:53;9.25;;;5.95;;
36211;SDS011;22247;48.586;13.492;2022-12-07T09:07:19;9.95;;;6.13;;
36211;SDS011;22247;48.586;13.492;2022-12-07T09:09:45;13.45;;;6.88;;
36211;SDS011;22247;48.586;13.492;2022-12-07T09:12:14;7.28;;;4.65;;
36211;SDS011;22247;48.586;13.492;2022-12-07T09:14:42;9.82;;;5.80;;
36211;SDS011;22247;48.586;13.492;2022-12-07T09:17:07;8.77;;;5.45;;
36211;SDS011;22247;48.586;13.492;2022-12-07T09:19:35;9.32;;;5.20;;
36211;SDS011;22247;48.586;13.492;2022-12-07T09:22:04;7.95;;;5.00;;
36211;SDS011;22247;48.586;13.492;2022-12-07T09:24:30;7.05;;;4.43;;
36211;SDS011;22247;48.586;13.492;2022-12-07T09:26:57;9.77;;;6.32;;
36211;SDS011;22247;48.586;13.492;2022-12-07T09:29:27;10.95;;;5.90;;
36211;SDS011;22247;48.586;13.492;2022-12-07T09:31:53;9.75;;;5.05;;
36211;SDS011;22247;48.586;13.492;2022-12-07T09:34:19;8.18;;;4.13;;
36211;SDS011;22247;48.586;13.492;2022-12-07T09:36:46;8.35;;;4.90;;
36211;SDS011;22247;48.586;13.492;2022-12-07T09:39:14;8.32;;;4.57;;
36211;SDS011;22247;48.586;13.492;2022-12-07T09:41:41;8.65;;;5.45;;
36211;SDS011;22247;48.586;13.492;2022-12-07T09:44:12;9.48;;;5.90;;
36211;SDS011;22247;48.586;13.492;2022-12-07T09:46:41;9.95;;;5.53;;
36211;SDS011;22247;48.586;13.492;2022-12-07T09:49:11;9.43;;;5.68;;
36211;SDS011;22247;48.586;13.492;2022-12-07T09:51:41;8.77;;;4.53;;
36211;SDS011;22247;48.586;13.492;2022-12-07T09:54:08;11.57;;;6.38;;
36211;SDS011;22247;48.586;13.492;2022-12-07T09:56:37;10.02;;;6.45;;
36211;SDS011;22247;48.586;13.492;2022-12-07T09:59:03;9.68;;;5.03;;
36211;SDS011;22247;48.586;13.492;2022-12-07T10:01:31;10.65;;;5.60;;
36211;SDS011;22247;48.586;13.492;2022-12-07T10:04:17;8.15;;;5.10;;
36211;SDS011;22247;48.586;13.492;2022-12-07T10:06:49;9.15;;;5.00;;
36211;SDS011;22247;48.586;13.492;2022-12-07T10:09:21;10.05;;;5.57;;
36211;SDS011;22247;48.586;13.492;2022-12-07T10:12:04;10.68;;;6.53;;
36211;SDS011;22247;48.586;13.492;2022-12-07T10:14:32;10.68;;;6.43;;
36211;SDS011;22247;48.586;13.492;2022-12-07T10:17:00;8.63;;;5.95;;
36211;SDS011;22247;48.586;13.492;2022-12-07T10:19:46;9.77;;;5.35;;
36211;SDS011;22247;48.586;13.492;2022-12-07T10:22:15;8.77;;;5.93;;
36211;SDS011;22247;48.586;13.492;2022-12-07T10:24:46;7.85;;;4.72;;
36211;SDS011;22247;48.586;13.492;2022-12-07T10:27:19;8.85;;;5.53;;
36211;SDS011;22247;48.586;13.492;2022-12-07T10:29:55;8.45;;;4.82;;
36211;SDS011;22247;48.586;13.492;2022-12-07T10:32:31;8.43;;;4.78;;
36211;SDS011;22247;48.586;13.492;2022-12-07T10:37:47;8.60;;;5.32;;
36211;SDS011;22247;48.586;13.492;2022-12-07T10:40:35;8.50;;;4.88;;
36211;SDS011;22247;48.586;13.492;2022-12-07T10:48:47;6.70;;;4.72;;
36211;SDS011;22247;48.586;13.492;2022-12-07T10:56:54;8.57;;;4.60;;
36211;SDS011;22247;48.586;13.492;2022-12-07T11:05:03;6.30;;;4.30;;
36211;SDS011;22247;48.586;13.492;2022-12-07T11:11:21;10.25;;;4.78;;
36211;SDS011;22247;48.586;13.492;2022-12-07T11:21:57;6.10;;;3.80;;
36211;SDS011;22247;48.586;13.492;2022-12-07T11:24:26;11.13;;;3.85;;
36211;SDS011;22247;48.586;13.492;2022-12-07T11:32:57;7.97;;;3.53;;
36211;SDS011;22247;48.586;13.492;2022-12-07T11:38:20;7.13;;;4.15;;
36211;SDS011;22247;48.586;13.492;2022-12-07T11:40:58;7.15;;;4.15;;
36211;SDS011;22247;48.586;13.492;2022-12-07T11:43:37;7.28;;;4.20;;
36211;SDS011;22247;48.586;13.492;2022-12-07T11:46:22;7.90;;;4.38;;
36211;SDS011;22247;48.586;13.492;2022-12-07T11:49:02;7.85;;;4.32;;
36211;SDS011;22247;48.586;13.492;2022-12-07T11:51:39;7.82;;;4.18;;
36211;SDS011;22247;48.586;13.492;2022-12-07T11:54:12;8.55;;;4.25;;
36211;SDS011;22247;48.586;13.492;2022-12-07T11:56:42;9.30;;;4.88;;
36211;SDS011;22247;48.586;13.492;2022-12-07T12:02:18;9.18;;;4.43;;
36211;SDS011;22247;48.586;13.492;2022-12-07T12:07:34;8.10;;;4.30;;
36211;SDS011;22247;48.586;13.492;2022-12-07T12:10:05;5.78;;;2.97;;
36211;SDS011;22247;48.586;13.492;2022-12-07T12:20:51;7.60;;;3.58;;
36211;SDS011;22247;48.586;13.492;2022-12-07T12:23:40;4.87;;;2.53;;
36211;SDS011;22247;48.586;13.492;2022-12-07T12:26:15;6.72;;;3.30;;
36211;SDS011;22247;48.586;13.492;2022-12-07T12:28:59;6.07;;;3.50;;
36211;SDS011;22247;48.586;13.492;2022-12-07T12:31:33;6.55;;;3.17;;
36211;SDS011;22247;48.586;13.492;2022-12-07T12:36:59;9.00;;;3.80;;
36211;SDS011;22247;48.586;13.492;2022-12-07T12:39:25;8.35;;;2.72;;
36211;SDS011;22247;48.586;13.492;2022-12-07T12:41:55;8.55;;;4.35;;
36211;SDS011;22247;48.586;13.492;2022-12-07T12:54:21;9.48;;;4.78;;
36211;SDS011;22247;48.586;13.492;2022-12-07T13:13:05;7.67;;;4.43;;
36211;SDS011;22247;48.586;13.492;2022-12-07T13:18:39;5.85;;;3.15;;
36211;SDS011;22247;48.586;13.492;2022-12-07T13:26:15;7.53;;;3.63;;
36211;SDS011;22247;48.586;13.492;2022-12-07T13:28:49;6.68;;;3.45;;
36211;SDS011;22247;48.586;13.492;2022-12-07T13:31:34;8.70;;;4.57;;
36211;SDS011;22247;48.586;13.492;2022-12-07T13:34:01;8.10;;;4.55;;
36211;SDS011;22247;48.586;13.492;2022-12-07T13:39:11;8.55;;;3.80;;
36211;SDS011;22247;48.586;13.492;2022-12-07T13:41:48;9.00;;;3.45;;
36211;SDS011;22247;48.586;13.492;2022-12-07T13:44:19;9.82;;;4.88;;
36211;SDS011;22247;48.586;13.492;2022-12-07T13:49:18;9.88;;;4.82;;
36211;SDS011;22247;48.586;13.492;2022-12-07T13:51:51;7.90;;;4.72;;
36211;SDS011;22247;48.586;13.492;2022-12-07T13:54:18;19.13;;;6.20;;
36211;SDS011;22247;48.586;13.492;2022-12-07T13:56:52;6.53;;;4.53;;
36211;SDS011;22247;48.586;13.492;2022-12-07T13:59:19;8.93;;;5.88;;
36211;SDS011;22247;48.586;13.492;2022-12-07T14:01:48;8.70;;;4.90;;
36211;SDS011;22247;48.586;13.492;2022-12-07T14:06:47;10.20;;;5.68;;
36211;SDS011;22247;48.586;13.492;2022-12-07T14:11:42;8.10;;;4.88;;
36211;SDS011;22247;48.586;13.492;2022-12-07T14:14:10;11.07;;;4.85;;
36211;SDS011;22247;48.586;13.492;2022-12-07T14:22:28;7.63;;;4.43;;
36211;SDS011;22247;48.586;13.492;2022-12-07T14:25:02;8.10;;;4.50;;
36211;SDS011;22247;48.586;13.492;2022-12-07T14:27:37;9.55;;;5.15;;
36211;SDS011;22247;48.586;13.492;2022-12-07T14:30:05;11.07;;;5.57;;
36211;SDS011;22247;48.586;13.492;2022-12-07T14:32:32;7.28;;;3.63;;
36211;SDS011;22247;48.586;13.492;2022-12-07T14:35:11;7.07;;;4.18;;
36211;SDS011;22247;48.586;13.492;2022-12-07T14:37:41;5.63;;;2.88;;
36211;SDS011;22247;48.586;13.492;2022-12-07T14:40:13;8.82;;;4.28;;
36211;SDS011;22247;48.586;13.492;2022-12-07T14:45:13;9.50;;;4.63;;
36211;SDS011;22247;48.586;13.492;2022-12-07T14:47:46;7.45;;;4.28;;
36211;SDS011;22247;48.586;13.492;2022-12-07T14:50:13;8.07;;;5.00;;
36211;SDS011;22247;48.586;13.492;2022-12-07T14:52:43;8.93;;;5.07;;
36211;SDS011;22247;48.586;13.492;2022-12-07T14:55:24;8.45;;;4.70;;
36211;SDS011;22247;48.586;13.492;2022-12-07T14:57:51;7.07;;;4.13;;
36211;SDS011;22247;48.586;13.492;2022-12-07T15:00:18;8.88;;;4.97;;
36211;SDS011;22247;48.586;13.492;2022-12-07T15:02:46;8.15;;;5.20;;
36211;SDS011;22247;48.586;13.492;2022-12-07T15:05:12;8.02;;;4.72;;
36211;SDS011;22247;48.586;13.492;2022-12-07T15:07:38;7.30;;;4.22;;
36211;SDS011;22247;48.586;13.492;2022-12-07T15:10:09;10.30;;;4.25;;
36211;SDS011;22247;48.586;13.492;2022-12-07T15:12:47;11.75;;;4.10;;
36211;SDS011;22247;48.586;13.492;2022-12-07T15:15:13;9.18;;;4.65;;
36211;SDS011;22247;48.586;13.492;2022-12-07T15:17:39;8.25;;;4.45;;
36211;SDS011;22247;48.586;13.492;2022-12-07T15:20:07;8.55;;;5.00;;
36211;SDS011;22247;48.586;13.492;2022-12-07T15:22:36;8.10;;;4.85;;
36211;SDS011;22247;48.586;13.492;2022-12-07T15:25:04;10.30;;;5.15;;
36211;SDS011;22247;48.586;13.492;2022-12-07T15:27:33;11.60;;;5.28;;
36211;SDS011;22247;48.586;13.492;2022-12-07T15:30:01;14.48;;;5.50;;
36211;SDS011;22247;48.586;13.492;2022-12-07T15:32:27;7.85;;;4.68;;
36211;SDS011;22247;48.586;13.492;2022-12-07T15:34:53;8.35;;;4.22;;
36211;SDS011;22247;48.586;13.492;2022-12-07T15:37:19;10.63;;;5.07;;
36211;SDS011;22247;48.586;13.492;2022-12-07T15:39:48;8.95;;;4.60;;
36211;SDS011;22247;48.586;13.492;2022-12-07T15:42:16;10.75;;;5.30;;
36211;SDS011;22247;48.586;13.492;2022-12-07T15:44:42;10.23;;;5.22;;
36211;SDS011;22247;48.586;13.492;2022-12-07T15:47:26;9.82;;;4.72;;
36211;SDS011;22247;48.586;13.492;2022-12-07T15:49:55;10.63;;;4.57;;
36211;SDS011;22247;48.586;13.492;2022-12-07T15:52:25;9.38;;;5.07;;
36211;SDS011;22247;48.586;13.492;2022-12-07T15:54:51;10.20;;;5.28;;
36211;SDS011;22247;48.586;13.492;2022-12-07T15:57:19;8.75;;;4.97;;
36211;SDS011;22247;48.586;13.492;2022-12-07T15:59:48;10.10;;;5.35;;
36211;SDS011;22247;48.586;13.492;2022-12-07T16:02:16;9.50;;;4.60;;
36211;SDS011;22247;48.586;13.492;2022-12-07T16:04:42;8.35;;;4.30;;
36211;SDS011;22247;48.586;13.492;2022-12-07T16:07:11;9.32;;;5.00;;
36211;SDS011;22247;48.586;13.492;2022-12-07T16:09:41;11.77;;;6.03;;
36211;SDS011;22247;48.586;13.492;2022-12-07T16:12:14;9.52;;;5.53;;
36211;SDS011;22247;48.586;13.492;2022-12-07T16:14:42;8.98;;;5.35;;
36211;SDS011;22247;48.586;13.492;2022-12-07T16:17:11;10.70;;;5.90;;
36211;SDS011;22247;48.586;13.492;2022-12-07T16:19:39;11.02;;;5.85;;
36211;SDS011;22247;48.586;13.492;2022-12-07T16:22:06;10.70;;;6.30;;
36211;SDS011;22247;48.586;13.492;2022-12-07T16:24:32;12.43;;;6.20;;
36211;SDS011;22247;48.586;13.492;2022-12-07T16:26:58;11.23;;;5.78;;
36211;SDS011;22247;48.586;13.492;2022-12-07T16:29:26;9.15;;;5.85;;
36211;SDS011;22247;48.586;13.492;2022-12-07T16:31:52;9.93;;;5.50;;
36211;SDS011;22247;48.586;13.492;2022-12-07T16:34:18;10.40;;;5.43;;
36211;SDS011;22247;48.586;13.492;2022-12-07T16:36:44;8.07;;;4.93;;
36211;SDS011;22247;48.586;13.492;2022-12-07T16:39:11;11.25;;;6.07;;
36211;SDS011;22247;48.586;13.492;2022-12-07T16:41:37;11.45;;;5.75;;
36211;SDS011;22247;48.586;13.492;2022-12-07T16:44:04;9.60;;;5.22;;
36211;SDS011;22247;48.586;13.492;2022-12-07T16:46:33;17.38;;;5.68;;
36211;SDS011;22247;48.586;13.492;2022-12-07T16:49:00;8.02;;;4.72;;
36211;SDS011;22247;48.586;13.492;2022-12-07T16:51:29;17.75;;;4.60;;
36211;SDS011;22247;48.586;13.492;2022-12-07T16:53:57;12.52;;;5.95;;
36211;SDS011;22247;48.586;13.492;2022-12-07T16:56:23;11.00;;;5.28;;
36211;SDS011;22247;48.586;13.492;2022-12-07T16:58:51;11.98;;;6.88;;
36211;SDS011;22247;48.586;13.492;2022-12-07T17:01:19;12.02;;;5.88;;
36211;SDS011;22247;48.586;13.492;2022-12-07T17:03:50;11.00;;;5.80;;
36211;SDS011;22247;48.586;13.492;2022-12-07T17:06:17;17.83;;;7.78;;
36211;SDS011;22247;48.586;13.492;2022-12-07T17:08:47;13.63;;;7.68;;
36211;SDS011;22247;48.586;13.492;2022-12-07T17:11:15;13.15;;;6.82;;
36211;SDS011;22247;48.586;13.492;2022-12-07T17:13:50;11.98;;;7.60;;
36211;SDS011;22247;48.586;13.492;2022-12-07T17:16:35;16.38;;;7.30;;